Time;durP1;ratioP1;P1;durP2;ratioP2;P2;SDS_P1;SDS_P2;PMS_P1;PMS_P2;Temp;Humidity;BMP_temperature;BMP_pressure;BME280_temperature;BME280_humidity;BME280_pressure;Samples;Min_cycle;Max_cycle;Signal;HPM_P1;HPM_P2
2024/04/14 00:01:12;;;;;;;8.30;4.50;;;17.90;99.90;;;;;;5381095;26;19993;-69
2024/04/14 00:03:38;;;;;;;7.82;4.00;;;17.90;1.00;;;;;;5380160;26;20015;-69
2024/04/14 00:06:03;;;;;;;6.78;3.17;;;17.80;99.90;;;;;;5374946;26;20015;-69
2024/04/14 00:08:29;;;;;;;3.33;2.80;;;17.80;99.90;;;;;;5346427;26;19993;-69
2024/04/14 00:10:57;;;;;;;8.15;3.05;;;17.80;1.00;;;;;;5354982;26;20073;-70
2024/04/14 00:13:23;;;;;;;3.25;2.30;;;17.70;1.00;;;;;;5372831;26;20005;-69
2024/04/14 00:15:49;;;;;;;3.40;2.15;;;17.60;1.00;;;;;;5357879;26;20008;-69
2024/04/14 00:18:14;;;;;;;5.93;2.42;;;17.50;1.00;;;;;;5383603;26;19996;-69
2024/04/14 00:20:40;;;;;;;3.40;2.47;;;17.40;1.00;;;;;;5384483;26;19999;-69
2024/04/14 00:23:05;;;;;;;6.03;2.50;;;17.30;1.00;;;;;;5376129;26;19996;-69
2024/04/14 00:25:34;;;;;;;7.38;2.78;;;17.30;1.00;;;;;;5373647;26;20073;-69
2024/04/14 00:27:59;;;;;;;5.47;2.95;;;17.10;1.00;;;;;;5383473;26;20078;-69
2024/04/14 00:30:25;;;;;;;7.18;2.78;;;16.90;1.00;;;;;;5372223;26;19997;-69
2024/04/14 00:32:50;;;;;;;4.82;2.55;;;16.90;1.00;;;;;;5374200;26;20011;-69
2024/04/14 00:35:16;;;;;;;3.55;2.28;;;16.80;1.00;;;;;;5384494;26;20003;-69
2024/04/14 00:37:43;;;;;;;3.75;2.70;;;16.80;1.00;;;;;;5384356;26;19992;-69
2024/04/14 00:40:09;;;;;;;4.65;2.42;;;16.60;1.00;;;;;;5384343;26;19992;-69
2024/04/14 00:42:35;;;;;;;6.78;2.47;;;16.60;1.00;;;;;;5360598;26;20470;-70
2024/04/14 00:45:00;;;;;;;3.58;2.45;;;16.50;1.00;;;;;;5384449;26;20430;-69
2024/04/14 00:47:26;;;;;;;9.15;3.22;;;16.40;1.00;;;;;;5359980;26;19996;-69
2024/04/14 00:49:52;;;;;;;6.07;2.83;;;16.30;1.00;;;;;;5349175;26;20009;-69
2024/04/14 00:52:17;;;;;;;5.28;3.40;;;16.20;1.00;;;;;;5369976;26;19997;-69
2024/04/14 00:54:44;;;;;;;10.57;3.15;;;16.20;1.00;;;;;;5349040;26;20000;-69
2024/04/14 00:57:11;;;;;;;4.45;2.42;;;16.20;1.00;;;;;;5359456;26;19997;-69
2024/04/14 00:59:36;;;;;;;7.22;3.15;;;16.10;1.00;;;;;;5349428;26;19997;-69
2024/04/14 01:02:02;;;;;;;8.05;3.22;;;16.00;1.00;;;;;;5351192;26;19996;-69
2024/04/14 01:04:27;;;;;;;6.43;2.80;;;15.90;1.00;;;;;;5348831;26;20000;-69
2024/04/14 01:06:53;;;;;;;5.07;2.55;;;15.90;1.00;;;;;;5349146;26;19997;-69
2024/04/14 01:09:19;;;;;;;3.45;2.72;;;15.70;1.00;;;;;;5349193;26;20004;-69
2024/04/14 01:11:44;;;;;;;3.55;2.38;;;15.70;1.00;;;;;;5350862;26;20447;-69
2024/04/14 01:14:10;;;;;;;6.70;2.55;;;15.60;1.00;;;;;;5382583;26;20015;-69
2024/04/14 01:16:36;;;;;;;7.75;2.95;;;15.50;1.00;;;;;;5383718;26;19999;-69
2024/04/14 01:19:03;;;;;;;6.90;2.63;;;15.40;1.00;;;;;;5386195;26;20007;-69
2024/04/14 01:21:29;;;;;;;6.20;2.80;;;15.30;1.00;;;;;;5378521;26;20004;-69
2024/04/14 01:23:55;;;;;;;5.50;2.80;;;15.30;1.00;;;;;;5376484;26;20473;-69
2024/04/14 01:26:20;;;;;;;5.03;2.42;;;15.20;1.00;;;;;;5349870;26;20447;-70
2024/04/14 01:28:46;;;;;;;6.28;2.83;;;15.20;1.00;;;;;;5348354;26;20066;-69
2024/04/14 01:31:11;;;;;;;5.28;3.15;;;15.10;1.00;;;;;;5361898;26;20048;-69
2024/04/14 01:33:37;;;;;;;8.35;3.25;;;15.00;1.00;;;;;;5370129;26;19996;-69
2024/04/14 01:36:03;;;;;;;7.95;2.95;;;15.00;1.00;;;;;;5360457;26;20000;-69
2024/04/14 01:38:29;;;;;;;6.55;2.70;;;14.90;1.00;;;;;;5359055;26;20008;-69
2024/04/14 01:40:54;;;;;;;10.98;2.67;;;14.90;1.00;;;;;;5372970;26;20077;-69
2024/04/14 01:43:20;;;;;;;7.40;2.85;;;14.80;1.00;;;;;;5354130;26;20012;-69
2024/04/14 01:45:45;;;;;;;5.50;3.33;;;14.70;1.00;;;;;;5368880;26;20015;-69
2024/04/14 01:48:11;;;;;;;8.23;3.05;;;14.70;1.00;;;;;;5380217;26;19997;-70
2024/04/14 01:50:37;;;;;;;7.43;3.00;;;14.60;1.00;;;;;;5354352;26;19997;-69
2024/04/14 01:53:04;;;;;;;5.97;3.13;;;14.60;1.00;;;;;;5357895;26;20001;-69
2024/04/14 01:55:29;;;;;;;7.90;2.85;;;14.50;1.00;;;;;;5358564;26;20011;-69
2024/04/14 01:57:55;;;;;;;6.40;3.55;;;14.50;1.00;;;;;;5348208;26;19993;-69
2024/04/14 02:00:20;;;;;;;9.68;3.05;;;14.50;1.00;;;;;;5353010;26;20051;-69
2024/04/14 02:02:46;;;;;;;10.32;2.92;;;14.40;1.00;;;;;;5348631;26;20494;-69
2024/04/14 02:05:12;;;;;;;6.57;2.80;;;14.40;1.00;;;;;;5359683;26;20009;-69
2024/04/14 02:07:38;;;;;;;10.50;2.70;;;14.30;4.50;;;;;;5375413;26;19996;-69
2024/04/14 02:10:03;;;;;;;6.57;2.63;;;14.20;28.40;;;;;;5376450;26;20007;-69
2024/04/14 02:12:29;;;;;;;9.05;3.03;;;14.20;64.20;;;;;;5360404;26;19996;-69
2024/04/14 02:14:55;;;;;;;7.07;3.33;;;14.10;99.90;;;;;;5378575;26;19988;-69
2024/04/14 02:17:20;;;;;;;9.57;3.38;;;14.00;99.90;;;;;;5348361;26;19993;-69
2024/04/14 02:19:46;;;;;;;5.97;2.78;;;14.00;99.90;;;;;;5348471;26;20007;-69
2024/04/14 02:22:11;;;;;;;5.20;2.90;;;13.90;99.90;;;;;;5359745;26;19996;-69
2024/04/14 02:24:37;;;;;;;8.68;3.13;;;13.90;99.90;;;;;;5373005;26;20001;-69
2024/04/14 02:27:03;;;;;;;10.82;3.22;;;13.80;99.90;;;;;;5369233;26;20019;-69
2024/04/14 02:29:28;;;;;;;9.13;3.03;;;13.90;99.90;;;;;;5348055;26;20004;-69
2024/04/14 02:31:54;;;;;;;7.60;2.55;;;13.90;99.90;;;;;;5348676;26;20008;-69
2024/04/14 02:34:19;;;;;;;6.20;3.08;;;14.00;99.90;;;;;;5347673;26;20001;-69
2024/04/14 02:36:45;;;;;;;10.85;2.97;;;14.00;99.90;;;;;;5347786;26;20004;-68
2024/04/14 02:39:11;;;;;;;8.52;3.22;;;14.00;99.90;;;;;;5374813;26;20004;-69
2024/04/14 02:41:37;;;;;;;8.55;2.70;;;14.00;99.90;;;;;;5356186;26;20001;-69
2024/04/14 02:44:04;;;;;;;6.82;2.90;;;13.90;99.90;;;;;;5376178;26;20011;-68
2024/04/14 02:46:30;;;;;;;8.98;3.40;;;13.90;99.90;;;;;;5355729;26;19996;-68
2024/04/14 02:48:56;;;;;;;9.75;3.25;;;13.80;99.90;;;;;;5381858;26;20003;-69
2024/04/14 02:51:21;;;;;;;11.00;3.28;;;13.80;1.00;;;;;;5363730;26;20485;-69
2024/04/14 02:53:47;;;;;;;11.43;3.08;;;13.70;1.00;;;;;;5356965;26;19997;-69
2024/04/14 02:56:13;;;;;;;9.05;3.20;;;13.70;1.00;;;;;;5354817;26;20010;-69
2024/04/14 02:58:38;;;;;;;5.95;2.88;;;13.70;1.00;;;;;;5374706;26;20008;-69
2024/04/14 03:01:04;;;;;;;8.20;3.05;;;13.70;19.40;;;;;;5364746;26;20048;-70
2024/04/14 03:03:29;;;;;;;6.32;3.40;;;13.80;51.10;;;;;;5349537;26;20015;-69
2024/04/14 03:06:00;;;;;;;7.93;2.92;;;13.80;42.50;;;;;;5376962;26;20000;-69
2024/04/14 03:08:26;;;;;;;9.15;3.22;;;13.80;65.10;;;;;;5379271;26;20011;-69
2024/04/14 03:10:54;;;;;;;8.43;3.00;;;13.70;99.90;;;;;;5368414;26;20009;-69
2024/04/14 03:13:19;;;;;;;8.98;3.33;;;13.70;99.90;;;;;;5348379;26;19996;-69
2024/04/14 03:15:45;;;;;;;9.38;3.20;;;13.80;99.90;;;;;;5356007;26;20011;-69
2024/04/14 03:18:10;;;;;;;8.80;3.53;;;13.80;99.90;;;;;;5359269;26;20074;-69
2024/04/14 03:20:36;;;;;;;9.15;3.25;;;13.80;99.90;;;;;;5369977;26;20015;-69
2024/04/14 03:23:01;;;;;;;8.27;3.60;;;13.80;99.90;;;;;;5361601;26;19996;-69
2024/04/14 03:25:27;;;;;;;12.27;3.65;;;13.90;99.90;;;;;;5366478;26;20653;-69
2024/04/14 03:27:52;;;;;;;10.40;3.83;;;13.90;99.90;;;;;;5357490;26;20015;-70
2024/04/14 03:30:18;;;;;;;10.40;3.90;;;13.90;99.90;;;;;;5365402;26;20000;-69
2024/04/14 03:32:43;;;;;;;8.85;3.35;;;13.90;99.90;;;;;;5359108;26;20000;-69
2024/04/14 03:35:09;;;;;;;8.93;3.58;;;13.90;99.90;;;;;;5357843;26;20019;-69
2024/04/14 03:37:36;;;;;;;12.48;3.95;;;13.90;1.00;;;;;;5367551;26;20016;-69
2024/04/14 03:40:04;;;;;;;6.13;3.13;;;13.90;1.00;;;;;;5361165;26;19996;-69
2024/04/14 03:42:32;;;;;;;9.82;3.45;;;13.90;1.00;;;;;;5360891;26;19996;-68
2024/04/14 03:44:57;;;;;;;8.18;3.25;;;13.90;1.00;;;;;;5378357;26;20004;-69
2024/04/14 03:47:23;;;;;;;10.23;3.40;;;13.90;1.00;;;;;;5374035;26;19996;-70
2024/04/14 03:49:48;;;;;;;9.55;3.83;;;13.80;20.80;;;;;;5346943;26;19997;-69
2024/04/14 03:52:14;;;;;;;11.90;3.60;;;13.90;47.30;;;;;;5354222;26;20007;-69
2024/04/14 03:54:39;;;;;;;19.80;4.65;;;13.90;99.90;;;;;;5350259;26;20324;-69
2024/04/14 03:57:05;;;;;;;11.50;3.80;;;13.80;99.90;;;;;;5368043;26;20000;-68
2024/04/14 03:59:31;;;;;;;12.70;4.05;;;13.90;99.90;;;;;;5368386;26;19993;-69
2024/04/14 04:01:56;;;;;;;9.85;4.45;;;13.80;99.90;;;;;;5372645;26;20000;-69
2024/04/14 04:04:22;;;;;;;13.25;5.15;;;13.80;1.00;;;;;;5351864;26;20000;-69
2024/04/14 04:06:47;;;;;;;13.98;4.50;;;13.80;99.90;;;;;;5351571;26;19997;-70
2024/04/14 04:09:14;;;;;;;11.15;4.05;;;13.70;99.90;;;;;;5355120;26;20000;-69
2024/04/14 04:11:42;;;;;;;10.57;4.20;;;13.60;1.00;;;;;;5358193;26;20015;-69
2024/04/14 04:14:08;;;;;;;18.85;5.13;;;13.60;99.90;;;;;;5365559;26;20465;-69
2024/04/14 04:16:33;;;;;;;15.52;4.47;;;13.50;1.00;;;;;;5381542;26;20008;-69
2024/04/14 04:18:59;;;;;;;14.25;4.82;;;13.40;1.00;;;;;;5366418;26;20001;-69
2024/04/14 04:21:24;;;;;;;12.65;4.55;;;13.40;1.00;;;;;;5351469;26;20004;-69
2024/04/14 04:23:50;;;;;;;14.73;5.03;;;13.40;62.90;;;;;;5378669;26;20004;-69
2024/04/14 04:26:15;;;;;;;11.55;4.85;;;13.50;99.90;;;;;;5364548;26;20008;-69
2024/04/14 04:28:41;;;;;;;11.85;4.40;;;13.40;99.90;;;;;;5362249;26;20016;-69
2024/04/14 04:31:12;;;;;;;13.23;4.72;;;13.40;1.00;;;;;;5370467;26;20008;-69
2024/04/14 04:33:39;;;;;;;14.77;4.95;;;13.40;99.90;;;;;;5378097;26;20004;-69
2024/04/14 04:36:05;;;;;;;12.70;5.30;;;13.40;99.90;;;;;;5362521;26;20350;-69
2024/04/14 04:38:30;;;;;;;11.00;4.85;;;13.30;99.90;;;;;;5351556;26;20000;-69
2024/04/14 04:40:56;;;;;;;11.52;4.60;;;13.30;99.90;;;;;;5366752;26;20069;-69
2024/04/14 04:43:24;;;;;;;14.00;5.50;;;13.20;1.00;;;;;;5378868;26;20020;-69
2024/04/14 04:45:50;;;;;;;11.95;5.38;;;13.20;81.20;;;;;;5352890;26;20004;-69
2024/04/14 04:48:15;;;;;;;14.05;5.53;;;13.10;99.90;;;;;;5361150;26;20025;-69
2024/04/14 04:50:45;;;;;;;13.93;4.60;;;13.10;99.90;;;;;;5361345;26;20016;-69
2024/04/14 04:53:10;;;;;;;13.60;5.90;;;13.10;1.00;;;;;;5391583;26;20007;-69
2024/04/14 04:55:36;;;;;;;13.45;5.35;;;13.00;1.00;;;;;;5350852;26;20019;-70
2024/04/14 04:58:01;;;;;;;13.27;5.45;;;13.00;1.00;;;;;;5349539;26;20001;-69
2024/04/14 05:00:27;;;;;;;15.60;5.05;;;13.00;28.70;;;;;;5363747;26;20004;-69
2024/04/14 05:02:52;;;;;;;15.20;5.28;;;13.10;1.00;;;;;;5350761;26;20001;-69
2024/04/14 05:05:18;;;;;;;14.52;5.78;;;13.10;6.60;;;;;;5349119;26;20016;-69
2024/04/14 05:07:43;;;;;;;15.38;5.57;;;13.10;1.00;;;;;;5377786;26;20012;-68
2024/04/14 05:10:09;;;;;;;16.20;5.50;;;13.10;1.00;;;;;;5364493;26;20000;-69
2024/04/14 05:12:34;;;;;;;14.13;4.95;;;13.10;1.00;;;;;;5383554;26;20024;-68
2024/04/14 05:15:04;;;;;;;12.60;4.85;;;13.10;1.00;;;;;;5366830;26;20001;-69
2024/04/14 05:17:30;;;;;;;13.32;5.35;;;13.20;1.00;;;;;;5348839;26;20005;-68
2024/04/14 05:19:56;;;;;;;13.68;5.18;;;13.20;1.00;;;;;;5357289;26;20011;-68
2024/04/14 05:22:21;;;;;;;17.65;5.97;;;13.20;1.00;;;;;;5377277;26;20004;-68
2024/04/14 05:24:47;;;;;;;16.75;5.65;;;13.20;1.00;;;;;;5372035;26;20019;-69
2024/04/14 05:27:15;;;;;;;16.33;5.20;;;13.20;1.00;;;;;;5357776;26;20005;-69
2024/04/14 05:29:45;;;;;;;19.42;5.70;;;13.20;1.00;;;;;;5376168;26;20000;-69
2024/04/14 05:32:12;;;;;;;16.48;5.43;;;13.20;1.00;;;;;;5362441;26;20073;-69
2024/04/14 05:34:37;;;;;;;14.18;5.50;;;13.30;1.00;;;;;;5362117;26;20397;-71
2024/04/14 05:37:03;;;;;;;17.70;5.47;;;13.40;1.00;;;;;;5363778;26;20074;-69
2024/04/14 05:39:31;;;;;;;13.23;5.18;;;13.50;99.90;;;;;;5357884;26;20070;-69
2024/04/14 05:41:57;;;;;;;16.05;5.50;;;13.50;99.90;;;;;;5363123;26;20005;-70
2024/04/14 05:44:22;;;;;;;14.45;4.82;;;13.40;99.90;;;;;;5352232;26;20005;-69
2024/04/14 05:46:48;;;;;;;14.88;4.88;;;13.40;99.90;;;;;;5350405;26;20009;-69
2024/04/14 05:49:13;;;;;;;18.15;5.45;;;13.50;99.90;;;;;;5370510;26;20000;-69
2024/04/14 05:51:39;;;;;;;13.35;5.05;;;13.50;99.90;;;;;;5359898;26;20004;-68
2024/04/14 05:54:04;;;;;;;15.63;5.10;;;13.50;99.90;;;;;;5371354;26;20012;-68
2024/04/14 05:56:30;;;;;;;18.67;5.75;;;13.60;1.00;;;;;;5354402;26;20023;-68
2024/04/14 05:58:55;;;;;;;12.52;5.35;;;13.80;99.90;;;;;;5380778;26;20001;-68
2024/04/14 06:01:21;;;;;;;14.82;5.30;;;14.10;99.90;;;;;;5363332;26;20004;-69
2024/04/14 06:03:46;;;;;;;17.80;5.35;;;14.20;99.90;;;;;;5375673;26;20468;-68
2024/04/14 06:06:12;;;;;;;15.95;5.03;;;14.20;99.90;;;;;;5353245;26;20005;-69
2024/04/14 06:08:37;;;;;;;12.70;4.40;;;14.40;99.90;;;;;;5362107;26;20012;-69
2024/04/14 06:11:03;;;;;;;14.57;5.45;;;14.60;99.90;;;;;;5352989;26;20020;-69
2024/04/14 06:13:30;;;;;;;12.98;5.22;;;14.60;99.90;;;;;;5368290;26;20342;-69
2024/04/14 06:15:55;;;;;;;12.20;4.75;;;14.60;1.00;;;;;;5350143;26;19993;-68
2024/04/14 06:18:21;;;;;;;11.50;4.63;;;14.50;1.00;;;;;;5364025;26;20005;-69
2024/04/14 06:20:46;;;;;;;14.45;4.45;;;14.30;1.00;;;;;;5350590;26;20005;-68
2024/04/14 06:23:12;;;;;;;12.75;4.82;;;14.30;1.00;;;;;;5374270;26;20069;-68
2024/04/14 06:25:38;;;;;;;9.68;4.90;;;14.00;1.00;;;;;;5370593;26;20005;-69
2024/04/14 06:28:04;;;;;;;13.57;4.60;;;13.90;99.90;;;;;;5378475;26;20029;-70
2024/04/14 06:30:29;;;;;;;12.02;4.68;;;14.00;99.90;;;;;;5356263;26;20000;-69
2024/04/14 06:32:55;;;;;;;14.38;4.15;;;14.10;1.00;;;;;;5379043;26;20023;-69
2024/04/14 06:35:21;;;;;;;14.93;4.95;;;14.20;1.00;;;;;;5358763;26;20074;-69
2024/04/14 06:37:46;;;;;;;7.00;4.35;;;14.80;99.90;;;;;;5367960;26;20001;-69
2024/04/14 06:40:13;;;;;;;13.10;5.28;;;15.50;99.90;;;;;;5354867;26;20005;-69
2024/04/14 06:42:39;;;;;;;9.95;4.22;;;15.30;99.90;;;;;;5378501;26;20015;-69
2024/04/14 06:45:05;;;;;;;10.60;4.63;;;15.60;1.00;;;;;;5370007;26;20339;-69
2024/04/14 06:47:31;;;;;;;7.65;4.20;;;15.50;1.00;;;;;;5359123;26;19997;-69
2024/04/14 06:49:57;;;;;;;10.48;4.68;;;15.30;1.00;;;;;;5351911;26;20398;-69
2024/04/14 06:52:22;;;;;;;11.65;5.07;;;15.30;1.00;;;;;;5360729;26;20459;-69
2024/04/14 06:54:48;;;;;;;12.15;5.55;;;15.10;1.00;;;;;;5375953;26;20454;-69
2024/04/14 06:57:13;;;;;;;11.15;4.90;;;15.00;1.60;;;;;;5350168;26;20457;-69
2024/04/14 06:59:39;;;;;;;13.63;5.45;;;15.20;67.50;;;;;;5347362;26;20343;-69
2024/04/14 07:02:05;;;;;;;15.27;5.18;;;15.00;90.70;;;;;;5354375;26;20078;-69
2024/04/14 07:04:31;;;;;;;14.38;5.47;;;15.10;60.50;;;;;;5376974;26;20026;-69
2024/04/14 07:06:57;;;;;;;14.63;4.95;;;15.20;1.00;;;;;;5371175;26;20005;-69
2024/04/14 07:09:22;;;;;;;13.00;5.00;;;15.50;1.00;;;;;;5378641;26;20000;-69
2024/04/14 07:11:49;;;;;;;12.98;4.57;;;15.90;1.00;;;;;;5380518;26;20083;-69
2024/04/14 07:14:14;;;;;;;11.35;4.18;;;17.20;99.90;;;;;;5352389;26;20012;-70
2024/04/14 07:16:40;;;;;;;12.77;3.60;;;18.00;1.00;;;;;;5378059;26;20453;-69
2024/04/14 07:19:05;;;;;;;11.15;3.75;;;18.10;1.00;;;;;;5366744;26;20075;-70
2024/04/14 07:21:31;;;;;;;12.48;3.65;;;17.50;1.00;;;;;;5373696;26;20004;-69
2024/04/14 07:23:56;;;;;;;9.85;3.67;;;16.70;3.70;;;;;;5376999;26;20012;-69
2024/04/14 07:26:23;;;;;;;10.70;3.83;;;16.90;12.00;;;;;;5379477;26;20004;-68
2024/04/14 07:28:48;;;;;;;9.85;3.70;;;16.80;99.90;;;;;;5371825;26;20000;-68
2024/04/14 07:31:14;;;;;;;10.77;4.22;;;16.90;99.90;;;;;;5375507;26;20000;-69
2024/04/14 07:33:39;;;;;;;9.27;3.97;;;16.50;99.90;;;;;;5347120;26;20076;-68
2024/04/14 07:36:05;;;;;;;10.45;3.80;;;16.80;99.90;;;;;;5349305;26;20071;-68
2024/04/14 07:38:31;;;;;;;13.40;4.05;;;17.10;99.90;;;;;;5347158;26;20025;-68
2024/04/14 07:40:56;;;;;;;7.57;3.90;;;16.80;99.90;;;;;;5354852;26;20012;-69
2024/04/14 07:43:22;;;;;;;10.18;3.97;;;16.00;99.90;;;;;;5346508;26;20005;-68
2024/04/14 07:45:47;;;;;;;13.00;3.65;;;15.90;99.90;;;;;;5354880;26;20463;-68
2024/04/14 07:48:13;;;;;;;10.88;3.78;;;16.20;99.90;;;;;;5350677;26;20012;-68
2024/04/14 07:50:43;;;;;;;13.02;3.58;;;16.30;99.90;;;;;;5358591;26;20009;-69
2024/04/14 07:53:09;;;;;;;11.15;3.13;;;16.40;99.90;;;;;;5348739;26;20008;-69
2024/04/14 07:55:35;;;;;;;8.63;2.67;;;16.50;99.90;;;;;;5378138;26;20005;-68
2024/04/14 07:58:01;;;;;;;9.38;2.95;;;16.40;99.90;;;;;;5366396;26;20342;-68
2024/04/14 08:00:26;;;;;;;6.82;2.22;;;16.40;99.90;;;;;;5371194;26;20007;-68
2024/04/14 08:02:52;;;;;;;7.72;2.97;;;16.50;99.90;;;;;;5381272;26;20413;-69
2024/04/14 08:05:17;;;;;;;8.38;2.80;;;16.70;20.20;;;;;;5381323;26;19992;-68
2024/04/14 08:07:43;;;;;;;9.85;2.88;;;17.10;1.40;;;;;;5358505;26;20011;-68
2024/04/14 08:10:08;;;;;;;10.88;2.95;;;16.80;1.00;;;;;;5346738;26;19993;-68
2024/04/14 08:12:36;;;;;;;9.27;2.65;;;16.40;99.90;;;;;;5346689;26;20334;-68
2024/04/14 08:15:01;;;;;;;10.15;2.65;;;16.10;99.90;;;;;;5346124;26;20047;-68
2024/04/14 08:17:31;;;;;;;8.55;2.42;;;15.90;99.90;;;;;;5348026;26;20009;-68
2024/04/14 08:19:56;;;;;;;5.22;2.10;;;15.60;99.90;;;;;;5346398;26;20439;-68
2024/04/14 08:22:22;;;;;;;10.10;2.40;;;15.40;99.90;;;;;;5348664;26;20015;-68
2024/04/14 08:24:48;;;;;;;9.77;2.65;;;15.40;99.90;;;;;;5345995;26;20517;-68
2024/04/14 08:27:13;;;;;;;8.57;2.47;;;15.50;99.90;;;;;;5367677;26;20008;-68
2024/04/14 08:29:39;;;;;;;12.68;3.15;;;15.50;99.90;;;;;;5363413;26;20004;-68
2024/04/14 08:32:05;;;;;;;10.43;2.58;;;16.10;99.90;;;;;;5381459;26;20000;-68
2024/04/14 08:34:30;;;;;;;8.30;2.40;;;16.50;99.90;;;;;;5406833;26;20068;-68
2024/04/14 08:36:56;;;;;;;10.23;2.78;;;16.20;99.90;;;;;;5403200;26;20008;-67
2024/04/14 08:39:21;;;;;;;8.70;2.20;;;16.20;99.90;;;;;;5387382;26;20404;-67
2024/04/14 08:41:48;;;;;;;9.13;2.65;;;16.10;99.90;;;;;;5379153;26;20012;-67
2024/04/14 08:44:14;;;;;;;7.93;2.28;;;16.80;99.90;;;;;;5355317;26;20004;-69
2024/04/14 08:46:42;;;;;;;10.38;2.40;;;17.40;99.90;;;;;;5378978;26;20342;-68
2024/04/14 08:49:10;;;;;;;9.90;2.70;;;18.10;1.00;;;;;;5388616;26;20011;-68
2024/04/14 08:51:35;;;;;;;7.47;2.30;;;18.40;1.00;;;;;;5374592;26;20066;-68
2024/04/14 08:54:01;;;;;;;6.53;2.50;;;18.60;99.90;;;;;;5350054;26;19993;-69
2024/04/14 08:56:30;;;;;;;8.70;2.45;;;17.80;1.00;;;;;;5358241;26;20004;-68
2024/04/14 08:59:00;;;;;;;8.35;2.30;;;17.20;99.90;;;;;;5367205;26;20009;-68
2024/04/14 09:01:27;;;;;;;9.43;2.67;;;16.70;79.00;;;;;;5348961;26;19992;-68
2024/04/14 09:03:52;;;;;;;13.32;3.42;;;16.50;1.00;;;;;;5383760;26;20004;-68
2024/04/14 09:06:19;;;;;;;6.28;2.33;;;17.60;23.20;;;;;;5357965;26;20015;-68
2024/04/14 09:08:45;;;;;;;8.15;2.58;;;18.30;99.90;;;;;;5372841;26;20024;-69
2024/04/14 09:11:10;;;;;;;11.00;2.67;;;18.90;99.90;;;;;;5352462;26;20005;-68
2024/04/14 09:13:36;;;;;;;10.40;2.95;;;20.30;99.90;;;;;;5368582;26;20106;-68
2024/04/14 09:16:02;;;;;;;10.10;3.10;;;20.10;1.00;;;;;;5363461;26;20004;-68
2024/04/14 09:18:28;;;;;;;11.38;2.78;;;19.90;1.00;;;;;;5381746;26;20000;-69
2024/04/14 09:20:53;;;;;;;8.55;2.78;;;19.20;33.80;;;;;;5383595;26;19996;-68
2024/04/14 09:23:19;;;;;;;10.70;3.15;;;18.30;1.00;;;;;;5384053;26;20007;-68
2024/04/14 09:25:44;;;;;;;6.50;2.72;;;17.90;9.10;;;;;;5384137;26;20070;-68
2024/04/14 09:28:11;;;;;;;7.45;2.88;;;17.40;7.50;;;;;;5383864;26;20007;-68
2024/04/14 09:30:37;;;;;;;8.00;2.72;;;16.60;8.40;;;;;;5383786;26;20004;-68
2024/04/14 09:33:04;;;;;;;7.72;2.72;;;17.30;8.50;;;;;;5383554;26;20449;-69
2024/04/14 09:35:29;;;;;;;11.98;3.05;;;18.20;9.50;;;;;;5383751;26;20000;-69
2024/04/14 09:37:55;;;;;;;9.98;2.53;;;18.50;20.10;;;;;;5383885;26;20087;-68
2024/04/14 09:40:23;;;;;;;7.80;2.70;;;19.10;19.30;;;;;;5383887;26;20003;-68
2024/04/14 09:42:55;;;;;;;7.10;2.60;;;19.40;19.20;;;;;;5383867;26;20028;-67
2024/04/14 09:45:22;;;;;;;4.55;1.90;;;18.70;30.50;;;;;;5384056;26;20024;-67
2024/04/14 09:47:50;;;;;;;6.25;2.17;;;18.90;45.90;;;;;;5383507;26;20319;-68
2024/04/14 09:50:17;;;;;;;6.32;1.90;;;18.70;58.20;;;;;;5383969;26;19993;-68
2024/04/14 09:52:46;;;;;;;8.20;2.05;;;18.30;90.00;;;;;;5383394;26;20431;-68
2024/04/14 09:55:11;;;;;;;6.22;1.73;;;18.60;77.50;;;;;;5383092;26;20014;-68
2024/04/14 09:57:37;;;;;;;6.95;1.90;;;19.50;90.90;;;;;;5383309;26;19992;-68
2024/04/14 10:00:03;;;;;;;6.60;1.98;;;19.30;91.90;;;;;;5383048;26;20327;-68
2024/04/14 10:02:33;;;;;;;6.30;2.00;;;18.80;92.80;;;;;;5383446;26;20069;-69
2024/04/14 10:05:00;;;;;;;10.15;2.03;;;18.70;95.40;;;;;;5383376;26;20003;-68
2024/04/14 10:07:26;;;;;;;4.22;1.60;;;18.00;96.90;;;;;;5383539;26;19996;-68
2024/04/14 10:09:55;;;;;;;5.38;2.05;;;17.70;96.70;;;;;;5383657;26;20066;-68
2024/04/14 10:12:20;;;;;;;6.00;2.53;;;17.60;97.90;;;;;;5383137;26;20004;-68
2024/04/14 10:14:48;;;;;;;9.88;1.92;;;17.50;98.60;;;;;;5383309;26;20072;-68
2024/04/14 10:17:17;;;;;;;5.90;2.00;;;17.30;99.10;;;;;;5382745;26;20519;-69
2024/04/14 10:19:56;;;;;;;9.32;1.90;;;17.40;99.20;;;;;;5383090;26;20000;-68
2024/04/14 10:22:29;;;;;;;8.40;2.38;;;17.60;99.70;;;;;;5382972;26;20016;-68
2024/04/14 10:24:55;;;;;;;8.13;1.95;;;17.80;97.90;;;;;;5383025;26;20333;-68
2024/04/14 10:27:22;;;;;;;6.22;1.80;;;18.20;96.30;;;;;;5382840;26;19996;-68
2024/04/14 10:30:05;;;;;;;5.22;2.00;;;18.40;96.00;;;;;;5383117;26;20000;-69
2024/04/14 10:32:31;;;;;;;6.28;1.92;;;18.10;93.80;;;;;;5383425;26;19996;-69
2024/04/14 10:34:57;;;;;;;7.00;2.13;;;17.90;94.60;;;;;;5382928;26;20011;-69
2024/04/14 10:37:27;;;;;;;9.70;1.88;;;17.60;95.20;;;;;;5382983;26;20004;-68
2024/04/14 10:39:55;;;;;;;5.05;1.95;;;17.40;96.10;;;;;;5383055;26;20015;-68
2024/04/14 10:42:21;;;;;;;7.10;2.42;;;17.30;96.40;;;;;;5382497;26;19992;-69
2024/04/14 10:44:47;;;;;;;9.20;2.20;;;17.50;97.30;;;;;;5382554;26;20024;-69
2024/04/14 10:47:17;;;;;;;8.45;2.63;;;18.00;97.60;;;;;;5382440;26;20007;-69
2024/04/14 10:49:48;;;;;;;5.82;2.00;;;18.40;96.00;;;;;;5382404;26;20012;-68
2024/04/14 10:52:15;;;;;;;9.68;2.30;;;17.90;96.70;;;;;;5382541;26;20007;-69
2024/04/14 10:54:41;;;;;;;7.20;2.05;;;17.90;97.20;;;;;;5382413;26;20067;-69
2024/04/14 10:57:09;;;;;;;8.68;2.17;;;18.00;98.20;;;;;;5382717;26;19996;-69
2024/04/14 10:59:34;;;;;;;4.47;2.17;;;18.30;96.10;;;;;;5381465;26;20427;-69
2024/04/14 11:02:00;;;;;;;5.70;2.05;;;17.70;96.70;;;;;;5382677;26;20069;-68
2024/04/14 11:04:27;;;;;;;10.75;2.83;;;17.70;97.70;;;;;;5382723;26;19997;-68
2024/04/14 11:06:54;;;;;;;6.63;2.08;;;18.10;97.00;;;;;;5382331;26;20000;-68
2024/04/14 11:09:22;;;;;;;7.30;2.55;;;17.90;98.10;;;;;;5382382;26;20028;-68
2024/04/14 11:11:47;;;;;;;8.80;2.58;;;17.90;98.40;;;;;;5382493;26;20025;-68
2024/04/14 11:14:17;;;;;;;8.80;2.90;;;17.50;97.80;;;;;;5382361;26;20012;-68
2024/04/14 11:16:43;;;;;;;5.53;2.25;;;17.10;98.50;;;;;;5382255;26;20448;-68
2024/04/14 11:19:09;;;;;;;8.10;2.63;;;17.20;97.70;;;;;;5382985;26;19992;-68
2024/04/14 11:21:36;;;;;;;5.10;2.00;;;17.10;96.70;;;;;;5382315;26;20016;-68
2024/04/14 11:24:02;;;;;;;8.90;2.38;;;17.30;97.20;;;;;;5382041;26;19996;-69
2024/04/14 11:26:27;;;;;;;10.07;2.45;;;17.30;97.60;;;;;;5382526;26;19996;-69
2024/04/14 11:28:53;;;;;;;7.10;2.35;;;17.50;98.00;;;;;;5382016;26;20438;-69
2024/04/14 11:31:19;;;;;;;6.15;2.17;;;17.50;97.20;;;;;;5382261;26;20004;-69
2024/04/14 11:33:53;;;;;;;5.70;2.08;;;17.50;96.90;;;;;;5382286;26;20111;-69
2024/04/14 11:36:19;;;;;;;4.80;2.08;;;17.50;96.80;;;;;;5381833;26;20008;-69
2024/04/14 11:38:47;;;;;;;7.00;1.92;;;17.30;96.90;;;;;;5381918;26;20000;-69
2024/04/14 11:41:13;;;;;;;7.55;2.13;;;17.50;98.20;;;;;;5381804;26;20028;-69
2024/04/14 11:43:38;;;;;;;7.20;1.98;;;17.90;98.70;;;;;;5381972;26;20007;-69
2024/04/14 11:46:04;;;;;;;4.63;1.83;;;18.20;96.10;;;;;;5381783;26;19992;-69
2024/04/14 11:48:29;;;;;;;4.50;1.90;;;18.00;95.30;;;;;;5381478;26;20461;-69
2024/04/14 11:50:55;;;;;;;8.05;1.98;;;18.00;96.30;;;;;;5382141;26;20008;-69
2024/04/14 11:53:21;;;;;;;7.35;1.98;;;18.10;95.70;;;;;;5381886;26;20039;-69
2024/04/14 11:55:46;;;;;;;6.18;1.60;;;18.00;94.80;;;;;;5381796;26;19996;-69
2024/04/14 11:58:13;;;;;;;7.63;1.80;;;17.60;95.60;;;;;;5381520;26;20047;-69
2024/04/14 12:00:40;;;;;;;7.07;1.80;;;17.60;96.00;;;;;;5381382;26;20038;-69
2024/04/14 12:03:05;;;;;;;8.10;2.20;;;17.40;96.30;;;;;;5381527;26;20008;-69
2024/04/14 12:05:31;;;;;;;9.32;2.53;;;17.10;96.30;;;;;;5381476;26;19992;-70
2024/04/14 12:07:56;;;;;;;5.82;1.95;;;16.90;96.70;;;;;;5381494;26;20015;-69
2024/04/14 12:10:22;;;;;;;3.88;1.63;;;17.30;96.90;;;;;;5381428;26;20011;-69
2024/04/14 12:12:48;;;;;;;6.00;1.83;;;17.40;96.40;;;;;;5384844;26;20007;-69
2024/04/14 12:15:13;;;;;;;6.47;1.95;;;17.30;97.00;;;;;;5384680;26;19992;-69
2024/04/14 12:17:39;;;;;;;6.60;2.08;;;17.70;96.60;;;;;;5384959;26;20442;-69
2024/04/14 12:20:05;;;;;;;5.38;1.60;;;17.60;95.00;;;;;;5384783;26;19992;-69
2024/04/14 12:22:30;;;;;;;10.85;2.63;;;17.60;95.90;;;;;;5384618;26;20337;-70
2024/04/14 12:24:56;;;;;;;4.35;2.22;;;17.70;96.10;;;;;;5384960;26;19996;-69
2024/04/14 12:27:21;;;;;;;7.60;2.25;;;17.80;94.90;;;;;;5384596;26;20358;-69
2024/04/14 12:29:47;;;;;;;6.10;1.88;;;18.10;95.50;;;;;;5384455;26;20004;-69
2024/04/14 12:32:13;;;;;;;5.60;1.73;;;18.40;95.60;;;;;;5384342;26;20003;-69
2024/04/14 12:34:39;;;;;;;8.35;2.03;;;18.40;93.70;;;;;;5384490;26;19996;-69
2024/04/14 12:37:05;;;;;;;7.38;2.05;;;18.40;93.50;;;;;;5384273;26;20326;-69
2024/04/14 12:39:30;;;;;;;8.15;1.80;;;18.30;93.50;;;;;;5384286;26;19997;-69